createdAt,value
2023-03-24T00:01:23.803Z,12.44
2023-03-24T00:03:52.650Z,12.43
2023-03-24T00:06:23.463Z,12.44
2023-03-24T00:08:52.995Z,12.41
2023-03-24T00:11:21.413Z,12.42
2023-03-24T00:13:50.195Z,12.40
2023-03-24T00:16:19.441Z,12.40
2023-03-24T00:18:50.344Z,12.39
2023-03-24T00:21:18.397Z,12.37
2023-03-24T00:23:47.733Z,12.39
2023-03-24T00:26:16.759Z,12.36
2023-03-24T00:28:46.590Z,12.38
2023-03-24T00:31:15.957Z,12.36
2023-03-24T00:33:48.063Z,12.35
2023-03-24T00:36:17.037Z,12.32
2023-03-24T00:38:47.224Z,12.34
2023-03-24T00:41:20.021Z,12.34
2023-03-24T00:43:48.899Z,12.31
2023-03-24T00:46:28.654Z,12.33
2023-03-24T00:49:02.197Z,12.33
2023-03-24T00:51:31.595Z,12.06
2023-03-24T00:53:59.822Z,12.28
2023-03-24T00:56:31.877Z,12.33
2023-03-24T00:59:02.400Z,12.30
2023-03-24T01:01:33.170Z,12.30
2023-03-24T01:04:02.391Z,12.29
2023-03-24T01:06:30.435Z,12.29
2023-03-24T01:08:58.831Z,12.29
2023-03-24T01:11:35.886Z,12.29
2023-03-24T01:14:04.047Z,12.26
2023-03-24T01:16:32.365Z,12.26
2023-03-24T01:19:00.584Z,12.27
2023-03-24T01:21:29.033Z,12.27
2023-03-24T01:23:57.924Z,12.26
2023-03-24T01:26:25.861Z,12.26
2023-03-24T01:28:55.439Z,12.28
2023-03-24T01:31:23.399Z,12.26
2023-03-24T01:33:51.512Z,12.26
2023-03-24T01:36:19.453Z,12.26
2023-03-24T01:38:47.492Z,12.27
2023-03-24T01:41:15.607Z,12.26
2023-03-24T01:43:44.610Z,12.26
2023-03-24T01:46:19.735Z,12.28
2023-03-24T01:48:53.021Z,12.27
2023-03-24T01:51:24.727Z,12.27
2023-03-24T01:53:59.030Z,12.28
2023-03-24T01:56:29.528Z,12.26
2023-03-24T01:59:01.195Z,12.27
2023-03-24T02:01:43.057Z,12.26
2023-03-24T02:04:42.272Z,12.26
2023-03-24T02:07:19.925Z,12.28
2023-03-24T02:09:48.656Z,12.26
2023-03-24T02:12:17.194Z,12.26
2023-03-24T02:14:45.546Z,12.25
2023-03-24T02:17:57.223Z,12.24
2023-03-24T02:20:50.747Z,12.26
2023-03-24T02:23:58.998Z,12.22
2023-03-24T02:26:53.307Z,12.24
2023-03-24T02:30:00.705Z,12.24
2023-03-24T02:33:02.944Z,12.24
2023-03-24T02:36:09.558Z,12.21
2023-03-24T02:38:54.942Z,12.23
2023-03-24T02:41:31.743Z,12.25
2023-03-24T02:44:06.572Z,12.24
2023-03-24T02:46:39.453Z,12.24
2023-03-24T02:49:22.948Z,12.24
2023-03-24T02:51:54.093Z,12.25
2023-03-24T02:54:28.771Z,12.25
2023-03-24T02:57:04.405Z,12.26
2023-03-24T02:59:58.914Z,12.26
2023-03-24T03:02:54.967Z,12.25
2023-03-24T03:05:28.577Z,12.26
2023-03-24T03:08:01.781Z,12.28
2023-03-24T03:10:33.539Z,12.27
2023-03-24T03:13:08.928Z,12.29
2023-03-24T03:15:41.070Z,12.31
2023-03-24T03:18:16.104Z,12.31
2023-03-24T03:20:50.626Z,12.34
2023-03-24T03:23:23.383Z,12.35
2023-03-24T03:25:54.244Z,12.10
2023-03-24T03:28:30.012Z,12.34
2023-03-24T03:31:00.800Z,12.38
2023-03-24T03:33:35.941Z,12.42
2023-03-24T03:36:09.862Z,12.43
2023-03-24T03:38:47.323Z,12.46
2023-03-24T03:41:18.393Z,12.47
2023-03-24T03:43:50.873Z,12.49
2023-03-24T03:46:19.688Z,12.50
2023-03-24T03:48:49.102Z,12.53
2023-03-24T03:51:18.353Z,12.55
2023-03-24T03:53:59.445Z,12.58
2023-03-24T03:56:29.555Z,12.33
2023-03-24T03:59:24.986Z,12.59
2023-03-24T04:01:53.322Z,12.60
2023-03-24T04:05:07.011Z,12.65
2023-03-24T04:08:03.755Z,12.67
2023-03-24T04:11:33.972Z,12.63
2023-03-24T04:14:24.215Z,12.68
2023-03-24T04:17:27.187Z,12.69
2023-03-24T04:20:05.981Z,12.72
2023-03-24T04:22:47.291Z,12.74
2023-03-24T04:25:29.927Z,12.73
2023-03-24T04:28:03.143Z,12.75
2023-03-24T04:30:42.603Z,12.76
2023-03-24T04:33:18.973Z,12.75
2023-03-24T04:35:56.502Z,12.75
2023-03-24T04:38:38.284Z,12.70
2023-03-24T04:41:29.624Z,12.71
2023-03-24T04:44:10.739Z,12.68
2023-03-24T04:46:52.261Z,12.68
2023-03-24T04:49:24.979Z,12.66
2023-03-24T04:51:53.211Z,12.64
2023-03-24T04:54:25.459Z,12.62
2023-03-24T04:57:01.731Z,12.62
2023-03-24T04:59:46.146Z,12.57
2023-03-24T05:02:16.598Z,12.58
2023-03-24T05:04:52.768Z,12.56
2023-03-24T05:07:28.480Z,12.54
2023-03-24T05:10:00.007Z,12.52
2023-03-24T05:12:27.877Z,12.51
2023-03-24T05:15:19.400Z,12.48
2023-03-24T05:17:52.951Z,12.48
2023-03-24T05:20:24.515Z,12.45
2023-03-24T05:22:53.110Z,12.44
2023-03-24T05:25:21.400Z,12.42
2023-03-24T05:27:50.263Z,12.42
2023-03-24T05:30:24.592Z,12.38
2023-03-24T05:32:59.231Z,12.38
2023-03-24T05:35:27.178Z,12.35
2023-03-24T05:37:55.181Z,12.32
2023-03-24T05:40:23.248Z,12.31
2023-03-24T05:42:58.490Z,12.28
2023-03-24T05:45:30.524Z,12.23
2023-03-24T05:48:01.672Z,12.25
2023-03-24T05:50:45.488Z,12.20
2023-03-24T05:53:13.559Z,12.18
2023-03-24T05:55:59.955Z,12.15
2023-03-24T05:58:59.774Z,12.10
2023-03-24T06:01:48.266Z,12.10
2023-03-24T06:04:29.936Z,12.09
2023-03-24T06:07:03.791Z,12.05
2023-03-24T06:09:37.209Z,12.02
2023-03-24T06:12:07.267Z,12.02
2023-03-24T06:14:38.551Z,12.01
2023-03-24T06:17:15.021Z,12.01
2023-03-24T06:19:49.683Z,12.00
2023-03-24T06:22:38.582Z,11.96
2023-03-24T06:25:11.537Z,11.96
2023-03-24T06:27:46.209Z,11.95
2023-03-24T06:30:17.620Z,11.91
2023-03-24T06:32:47.080Z,11.89
2023-03-24T06:35:17.975Z,11.88
2023-03-24T06:37:56.460Z,11.84
2023-03-24T06:40:24.443Z,11.83
2023-03-24T06:42:57.164Z,11.80
2023-03-24T06:45:25.304Z,11.81
2023-03-24T06:47:55.733Z,11.79
2023-03-24T06:50:26.975Z,11.79
2023-03-24T06:52:56.183Z,11.74
2023-03-24T06:55:24.905Z,11.76
2023-03-24T06:57:55.166Z,11.75
2023-03-24T07:00:25.814Z,11.73
2023-03-24T07:03:08.040Z,11.72
2023-03-24T07:05:41.386Z,11.75
2023-03-24T07:08:33.784Z,11.72
2023-03-24T07:11:00.260Z,11.73
2023-03-24T07:13:28.475Z,11.75
2023-03-24T07:16:04.204Z,11.78
2023-03-24T07:18:32.406Z,11.78
2023-03-24T07:21:06.358Z,11.81
2023-03-24T07:23:36.249Z,11.81
2023-03-24T07:26:10.717Z,11.81
2023-03-24T07:28:47.355Z,11.82
2023-03-24T07:31:24.662Z,11.84
2023-03-24T07:34:01.918Z,11.89
2023-03-24T07:36:31.423Z,12.01
2023-03-24T07:38:59.852Z,12.13
2023-03-24T07:41:34.477Z,12.30
2023-03-24T07:44:07.226Z,12.49
2023-03-24T07:46:39.067Z,12.70
2023-03-24T07:49:18.012Z,12.94
2023-03-24T07:51:52.948Z,13.18
2023-03-24T07:54:24.768Z,13.36
2023-03-24T07:56:54.036Z,13.53
2023-03-24T07:59:21.845Z,13.66
2023-03-24T08:01:56.633Z,13.76
2023-03-24T08:04:46.907Z,13.81
2023-03-24T08:07:50.462Z,13.88
2023-03-24T08:10:18.656Z,13.87
2023-03-24T08:12:46.947Z,13.85
2023-03-24T08:15:15.746Z,13.83
2023-03-24T08:17:43.523Z,13.78
2023-03-24T08:20:15.165Z,13.77
2023-03-24T08:22:50.118Z,13.72
2023-03-24T08:25:19.946Z,13.72
2023-03-24T08:27:48.686Z,13.69
2023-03-24T08:30:19.670Z,13.68
2023-03-24T08:32:49.810Z,13.65
2023-03-24T08:35:20.434Z,13.65
2023-03-24T08:37:50.229Z,13.62
2023-03-24T08:40:23.281Z,13.59
2023-03-24T08:42:53.405Z,13.56
2023-03-24T08:45:23.999Z,13.54
2023-03-24T08:47:53.191Z,13.52
2023-03-24T08:50:23.849Z,13.48
2023-03-24T08:52:53.952Z,13.47
2023-03-24T08:55:23.680Z,13.46
2023-03-24T08:57:52.237Z,13.47
2023-03-24T09:00:22.661Z,13.50
2023-03-24T09:02:53.937Z,13.53
2023-03-24T09:05:36.633Z,13.55
2023-03-24T09:08:10.601Z,13.59
2023-03-24T09:10:38.416Z,13.60
2023-03-24T09:13:06.405Z,13.62
2023-03-24T09:15:34.910Z,13.65
2023-03-24T09:18:03.210Z,13.64
2023-03-24T09:20:31.094Z,13.65
2023-03-24T09:22:59.242Z,13.65
2023-03-24T09:25:28.434Z,13.66
2023-03-24T09:27:56.942Z,13.63
2023-03-24T09:30:24.702Z,13.63
2023-03-24T09:32:52.535Z,13.62
2023-03-24T09:35:20.726Z,13.62
2023-03-24T09:37:48.550Z,13.66
2023-03-24T09:40:21.997Z,13.72
2023-03-24T09:42:57.585Z,13.77
2023-03-24T09:45:28.203Z,13.84
2023-03-24T09:47:59.888Z,13.89
2023-03-24T09:50:34.452Z,13.93
2023-03-24T09:53:08.866Z,13.99
2023-03-24T09:55:40.686Z,14.04
2023-03-24T09:58:14.272Z,14.06
2023-03-24T10:00:46.170Z,14.09
2023-03-24T10:03:20.959Z,14.11
2023-03-24T10:05:55.392Z,14.12
2023-03-24T10:08:31.538Z,14.14
2023-03-24T10:11:04.566Z,14.13
2023-03-24T10:13:47.446Z,14.13
2023-03-24T10:16:20.317Z,13.87
2023-03-24T10:18:57.576Z,14.08
2023-03-24T10:21:28.086Z,14.13
2023-03-24T10:24:02.378Z,14.12
2023-03-24T10:26:37.630Z,14.12
2023-03-24T10:29:18.498Z,14.12
2023-03-24T10:31:52.334Z,14.10
2023-03-24T10:34:22.130Z,14.11
2023-03-24T10:36:52.234Z,14.11
2023-03-24T10:39:24.302Z,14.12
2023-03-24T10:42:02.124Z,14.11
2023-03-24T10:44:31.893Z,14.19
2023-03-24T10:47:04.670Z,14.22
2023-03-24T10:49:33.652Z,14.23
2023-03-24T10:52:03.849Z,14.29
2023-03-24T10:54:32.790Z,14.33
2023-03-24T10:57:08.210Z,14.39
2023-03-24T10:59:47.009Z,14.46
2023-03-24T11:02:19.755Z,14.54
2023-03-24T11:04:53.760Z,14.60
2023-03-24T11:07:23.074Z,14.62
2023-03-24T11:09:59.891Z,14.66
2023-03-24T11:12:29.538Z,14.69
2023-03-24T11:15:21.058Z,14.71
2023-03-24T11:17:55.885Z,14.71
2023-03-24T11:20:30.015Z,14.75
2023-03-24T11:23:02.019Z,14.76
2023-03-24T11:25:33.762Z,14.74
2023-03-24T11:28:04.729Z,14.74
2023-03-24T11:30:45.933Z,14.76
2023-03-24T11:33:21.104Z,14.74
2023-03-24T11:36:10.926Z,14.69
2023-03-24T11:38:39.030Z,14.68
2023-03-24T11:41:07.370Z,14.66
2023-03-24T11:43:35.205Z,14.65
2023-03-24T11:46:09.813Z,14.66
2023-03-24T11:48:45.656Z,14.68
2023-03-24T11:51:18.761Z,14.70
2023-03-24T11:53:52.118Z,14.71
2023-03-24T11:56:29.247Z,14.78
2023-03-24T11:59:03.856Z,14.82
2023-03-24T12:01:37.880Z,14.87
2023-03-24T12:04:25.935Z,14.91
2023-03-24T12:07:10.088Z,14.96
2023-03-24T12:09:46.719Z,14.99
2023-03-24T12:12:24.038Z,15.03
2023-03-24T12:15:27.477Z,15.05
2023-03-24T12:18:08.806Z,15.08
2023-03-24T12:20:46.335Z,15.08
2023-03-24T12:23:19.138Z,15.09
2023-03-24T12:26:06.463Z,15.10
2023-03-24T12:29:14.066Z,15.05
2023-03-24T12:32:06.795Z,15.05
2023-03-24T12:34:56.379Z,15.04
2023-03-24T12:37:32.156Z,15.06
2023-03-24T12:40:18.358Z,15.06
2023-03-24T12:42:47.581Z,15.04
2023-03-24T12:45:28.822Z,15.07
2023-03-24T12:48:23.206Z,15.05
2023-03-24T12:51:05.632Z,15.09
2023-03-24T12:53:56.806Z,15.07
2023-03-24T12:56:32.352Z,15.09
2023-03-24T12:59:04.322Z,15.10
2023-03-24T13:01:36.382Z,15.10
2023-03-24T13:04:11.438Z,15.10
2023-03-24T13:06:47.554Z,15.10
2023-03-24T13:09:25.587Z,15.10
2023-03-24T13:11:59.577Z,15.07
2023-03-24T13:14:32.640Z,15.07
2023-03-24T13:17:07.065Z,15.06
2023-03-24T13:19:38.738Z,15.05
2023-03-24T13:22:15.695Z,15.05
2023-03-24T13:24:44.647Z,15.01
2023-03-24T13:27:21.799Z,15.03
2023-03-24T13:30:08.315Z,15.02
2023-03-24T13:32:42.772Z,15.00
2023-03-24T13:35:21.821Z,15.00
2023-03-24T13:37:53.957Z,15.01
2023-03-24T13:40:24.514Z,15.00
2023-03-24T13:42:55.956Z,15.04
2023-03-24T13:45:37.002Z,15.09
2023-03-24T13:48:16.579Z,15.12
2023-03-24T13:50:55.380Z,15.16
2023-03-24T13:53:33.720Z,15.18
2023-03-24T13:56:04.383Z,15.19
2023-03-24T13:58:48.256Z,15.22
2023-03-24T14:01:20.188Z,15.23
2023-03-24T14:04:08.562Z,15.22
2023-03-24T14:06:47.430Z,15.20
2023-03-24T14:09:22.588Z,15.13
2023-03-24T14:12:09.206Z,15.09
2023-03-24T14:14:37.965Z,15.03
2023-03-24T14:17:16.065Z,15.01
2023-03-24T14:19:46.001Z,14.94
2023-03-24T14:22:16.211Z,14.90
2023-03-24T14:24:48.189Z,14.88
2023-03-24T14:27:37.941Z,14.84
2023-03-24T14:30:15.096Z,14.80
2023-03-24T14:32:47.095Z,14.79
2023-03-24T14:35:26.223Z,14.75
2023-03-24T14:37:57.743Z,14.73
2023-03-24T14:40:32.126Z,14.72
2023-03-24T14:43:18.549Z,14.69
2023-03-24T14:45:56.110Z,14.67
2023-03-24T14:48:34.825Z,14.66
2023-03-24T14:51:09.842Z,14.62
2023-03-24T14:53:39.608Z,14.59
2023-03-24T14:56:15.368Z,14.57
2023-03-24T14:58:48.105Z,14.53
2023-03-24T15:01:17.298Z,14.22
2023-03-24T15:03:54.202Z,14.44
2023-03-24T15:06:24.334Z,14.43
2023-03-24T15:08:57.364Z,14.41
2023-03-24T15:11:29.450Z,14.39
2023-03-24T15:13:58.809Z,14.36
2023-03-24T15:16:28.998Z,14.38
2023-03-24T15:19:02.786Z,14.36
2023-03-24T15:21:36.948Z,14.36
2023-03-24T15:24:30.722Z,14.34
2023-03-24T15:27:20.407Z,14.34
2023-03-24T15:29:56.086Z,14.35
2023-03-24T15:32:27.022Z,14.34
2023-03-24T15:34:57.034Z,14.33
2023-03-24T15:37:31.757Z,14.33
2023-03-24T15:40:14.796Z,14.30
2023-03-24T15:42:46.341Z,14.30
2023-03-24T15:45:22.583Z,14.30
2023-03-24T15:47:54.024Z,14.26
2023-03-24T15:50:34.968Z,14.24
2023-03-24T15:53:06.227Z,14.17
2023-03-24T15:55:36.012Z,14.11
2023-03-24T15:58:22.964Z,14.05
2023-03-24T16:00:54.226Z,13.98
2023-03-24T16:03:26.781Z,13.93
2023-03-24T16:05:55.865Z,13.61
2023-03-24T16:08:29.562Z,13.78
2023-03-24T16:10:59.702Z,13.74
2023-03-24T16:13:29.361Z,13.70
2023-03-24T16:15:59.576Z,13.64
2023-03-24T16:18:33.168Z,13.60
2023-03-24T16:21:04.491Z,13.54
2023-03-24T16:23:32.450Z,13.50
2023-03-24T16:26:00.411Z,13.46
2023-03-24T16:28:31.234Z,13.45
2023-03-24T16:31:03.545Z,13.39
2023-03-24T16:33:32.314Z,13.35
2023-03-24T16:36:00.944Z,13.31
2023-03-24T16:38:29.039Z,13.26
2023-03-24T16:40:58.901Z,13.22
2023-03-24T16:43:27.741Z,13.14
2023-03-24T16:45:56.915Z,13.10
2023-03-24T16:48:24.931Z,13.01
2023-03-24T16:50:54.895Z,12.95
2023-03-24T16:53:22.960Z,12.89
2023-03-24T16:55:50.895Z,12.83
2023-03-24T16:58:18.960Z,12.78
2023-03-24T17:00:49.224Z,12.76
2023-03-24T17:03:19.044Z,12.75
2023-03-24T17:05:51.148Z,12.73
2023-03-24T17:08:22.335Z,12.68
2023-03-24T17:10:52.658Z,12.69
2023-03-24T17:13:22.644Z,12.68
2023-03-24T17:15:51.068Z,12.66
2023-03-24T17:18:21.084Z,12.68
2023-03-24T17:20:50.555Z,12.66
2023-03-24T17:23:18.947Z,12.65
2023-03-24T17:25:47.006Z,12.65
2023-03-24T17:28:16.218Z,12.65
2023-03-24T17:30:45.262Z,12.63
2023-03-24T17:33:14.725Z,12.63
2023-03-24T17:35:46.810Z,12.63
2023-03-24T17:38:16.666Z,12.59
2023-03-24T17:40:44.659Z,12.59
2023-03-24T17:43:12.666Z,12.57
2023-03-24T17:45:41.160Z,12.55
2023-03-24T17:48:09.280Z,12.53
2023-03-24T17:50:37.303Z,12.50
2023-03-24T17:53:07.290Z,12.50
2023-03-24T17:55:35.643Z,12.46
2023-03-24T17:58:03.594Z,12.44
2023-03-24T18:00:31.483Z,12.42
2023-03-24T18:02:59.512Z,12.39
2023-03-24T18:05:27.550Z,12.37
2023-03-24T18:07:57.890Z,12.36
2023-03-24T18:10:27.190Z,12.35
2023-03-24T18:12:55.465Z,12.31
2023-03-24T18:15:25.643Z,12.30
2023-03-24T18:17:53.654Z,12.28
2023-03-24T18:20:21.960Z,12.27
2023-03-24T18:22:49.939Z,12.25
2023-03-24T18:25:17.842Z,12.23
2023-03-24T18:27:47.103Z,12.23
2023-03-24T18:30:16.807Z,12.21
2023-03-24T18:32:44.980Z,12.19
2023-03-24T18:35:16.538Z,12.18
2023-03-24T18:37:45.526Z,12.17
2023-03-24T18:40:16.614Z,12.13
2023-03-24T18:42:44.589Z,12.11
2023-03-24T18:45:17.728Z,12.13
2023-03-24T18:47:46.694Z,12.09
2023-03-24T18:50:15.389Z,12.09
2023-03-24T18:52:43.441Z,12.07
2023-03-24T18:55:11.959Z,12.05
2023-03-24T18:57:41.893Z,12.05
2023-03-24T19:00:12.998Z,12.06
2023-03-24T19:02:42.915Z,12.04
2023-03-24T19:05:12.792Z,12.02
2023-03-24T19:07:40.900Z,12.02
2023-03-24T19:10:09.310Z,12.03
2023-03-24T19:12:37.238Z,12.01
2023-03-24T19:15:07.011Z,12.02
2023-03-24T19:17:34.956Z,12.01
2023-03-24T19:20:07.446Z,12.02
2023-03-24T19:22:35.576Z,11.99
2023-03-24T19:25:03.522Z,12.00
2023-03-24T19:27:31.431Z,12.00
2023-03-24T19:29:59.315Z,12.00
2023-03-24T19:32:27.176Z,12.01
2023-03-24T19:34:55.074Z,12.00
2023-03-24T19:37:24.377Z,12.02
2023-03-24T19:39:52.970Z,12.01
2023-03-24T19:42:22.690Z,11.99
2023-03-24T19:44:50.484Z,11.99
2023-03-24T19:47:18.306Z,11.98
2023-03-24T19:49:46.911Z,11.99
2023-03-24T19:52:14.800Z,11.99
2023-03-24T19:54:44.178Z,12.00
2023-03-24T19:57:12.094Z,11.98
2023-03-24T19:59:39.901Z,11.99
2023-03-24T20:02:11.334Z,11.98
2023-03-24T20:04:39.320Z,11.97
2023-03-24T20:07:07.339Z,11.97
2023-03-24T20:09:37.855Z,11.96
2023-03-24T20:12:07.583Z,11.98
2023-03-24T20:14:35.498Z,11.96
2023-03-24T20:17:03.498Z,11.96
2023-03-24T20:19:31.487Z,11.96
2023-03-24T20:21:59.418Z,11.96
2023-03-24T20:24:27.348Z,11.95
2023-03-24T20:26:55.434Z,11.97
2023-03-24T20:29:24.567Z,11.98
2023-03-24T20:31:52.401Z,11.96
2023-03-24T20:34:20.527Z,11.96
2023-03-24T20:36:48.257Z,11.96
2023-03-24T20:39:16.390Z,11.96
2023-03-24T20:41:44.256Z,11.95
2023-03-24T20:44:11.997Z,11.96
2023-03-24T20:46:41.217Z,11.96
2023-03-24T20:49:14.171Z,11.95
2023-03-24T20:51:42.331Z,11.94
2023-03-24T20:54:10.186Z,11.94
2023-03-24T20:56:38.385Z,11.93
2023-03-24T20:59:07.037Z,11.92
2023-03-24T21:01:42.193Z,11.93
2023-03-24T21:04:11.690Z,11.92
2023-03-24T21:06:39.488Z,11.90
2023-03-24T21:09:07.945Z,11.90
2023-03-24T21:11:36.010Z,11.89
2023-03-24T21:14:03.902Z,11.88
2023-03-24T21:16:33.693Z,11.88
2023-03-24T21:19:03.638Z,11.86
2023-03-24T21:21:33.134Z,11.88
2023-03-24T21:24:01.002Z,11.86
2023-03-24T21:26:28.918Z,11.85
2023-03-24T21:28:56.854Z,11.83
2023-03-24T21:31:26.277Z,11.83
2023-03-24T21:33:55.326Z,11.81
2023-03-24T21:36:24.446Z,11.81
2023-03-24T21:38:54.058Z,11.81
2023-03-24T21:41:22.954Z,11.78
2023-03-24T21:43:54.343Z,11.77
2023-03-24T21:46:25.781Z,11.77
2023-03-24T21:48:59.338Z,11.77
2023-03-24T21:51:30.735Z,11.73
2023-03-24T21:54:03.268Z,11.74
2023-03-24T21:56:32.466Z,11.70
2023-03-24T21:59:00.431Z,11.70
2023-03-24T22:01:30.995Z,11.71
2023-03-24T22:03:59.505Z,11.68
2023-03-24T22:06:29.060Z,11.69
2023-03-24T22:09:06.444Z,11.68
2023-03-24T22:11:35.971Z,11.68
2023-03-24T22:14:04.273Z,11.67
2023-03-24T22:16:33.004Z,11.67
2023-03-24T22:19:01.477Z,11.66
2023-03-24T22:21:29.386Z,11.66
2023-03-24T22:23:57.266Z,11.66
2023-03-24T22:26:25.363Z,11.65
2023-03-24T22:28:56.112Z,11.66
2023-03-24T22:31:24.717Z,11.64
2023-03-24T22:33:53.073Z,11.63
2023-03-24T22:36:21.384Z,11.64
2023-03-24T22:38:49.195Z,11.60
2023-03-24T22:41:17.014Z,11.60
2023-03-24T22:43:46.142Z,11.60
2023-03-24T22:46:15.487Z,11.60
2023-03-24T22:48:43.330Z,11.56
2023-03-24T22:51:16.841Z,11.56
2023-03-24T22:53:44.778Z,11.53
2023-03-24T22:56:12.850Z,11.51
2023-03-24T22:58:41.708Z,11.49
2023-03-24T23:01:10.437Z,11.47
2023-03-24T23:03:39.659Z,11.45
2023-03-24T23:06:09.092Z,11.42
2023-03-24T23:08:38.309Z,11.40
2023-03-24T23:11:07.827Z,11.39
2023-03-24T23:13:36.420Z,11.36
2023-03-24T23:16:04.455Z,11.34
2023-03-24T23:18:32.761Z,11.32
2023-03-24T23:21:08.166Z,11.33
2023-03-24T23:23:37.142Z,11.29
2023-03-24T23:26:05.766Z,11.28
2023-03-24T23:28:34.277Z,11.27
2023-03-24T23:31:02.129Z,11.27
2023-03-24T23:33:30.240Z,11.26
2023-03-24T23:35:59.565Z,11.25
2023-03-24T23:38:28.758Z,11.25
2023-03-24T23:40:56.529Z,11.23
2023-03-24T23:43:24.359Z,11.22
2023-03-24T23:45:56.159Z,11.24
2023-03-24T23:48:24.030Z,11.19
2023-03-24T23:50:56.792Z,11.23
2023-03-24T23:53:24.853Z,10.95
2023-03-24T23:55:57.010Z,11.16
2023-03-24T23:58:24.983Z,11.14
